Time;durP1;ratioP1;P1;durP2;ratioP2;P2;SDS_P1;SDS_P2;PMS_P1;PMS_P2;Temp;Humidity;BMP_temperature;BMP_pressure;BME280_temperature;BME280_humidity;BME280_pressure;Samples;Min_cycle;Max_cycle;Signal;HPM_P1;HPM_P2
2022/12/18 00:00:47;;;;;;;65.40;30.10;;;;;;;-4.86;100.00;100452.45;105031;1297;1002345;-79
2022/12/18 00:03:33;;;;;;;57.30;27.40;;;;;;;-4.86;100.00;100460.95;105785;1289;61899;-79
2022/12/18 00:05:59;;;;;;;64.20;27.50;;;;;;;-4.85;100.00;100461.81;106088;1288;58139;-79
2022/12/18 00:08:25;;;;;;;61.10;28.80;;;;;;;-4.84;100.00;100465.14;106109;1288;58094;-77
2022/12/18 00:10:51;;;;;;;62.20;27.80;;;;;;;-4.85;100.00;100467.20;106110;1289;57996;-79
2022/12/18 00:13:17;;;;;;;56.70;25.70;;;;;;;-4.85;100.00;100463.91;106111;1288;58164;-78
2022/12/18 00:15:43;;;;;;;61.30;28.30;;;;;;;-4.85;100.00;100462.16;106038;1288;58170;-79
2022/12/18 00:18:09;;;;;;;53.10;26.70;;;;;;;-4.85;100.00;100468.40;106130;1287;58083;-78
2022/12/18 00:20:36;;;;;;;63.40;27.50;;;;;;;-4.83;100.00;100468.96;106090;1288;58133;-78
2022/12/18 00:23:05;;;;;;;64.20;29.10;;;;;;;-4.82;100.00;100472.96;105371;1291;1002429;-79
2022/12/18 00:25:34;;;;;;;60.20;27.20;;;;;;;-4.81;100.00;100477.67;105938;1298;58619;-78
2022/12/18 00:28:00;;;;;;;58.60;27.10;;;;;;;-4.81;100.00;100482.52;105949;1289;59909;-78
2022/12/18 00:30:27;;;;;;;55.40;25.70;;;;;;;-4.83;100.00;100489.94;106073;1291;72905;-78
2022/12/18 00:32:53;;;;;;;57.40;27.40;;;;;;;-4.82;100.00;100489.25;105881;1290;58186;-78
2022/12/18 00:35:20;;;;;;;55.40;25.20;;;;;;;-4.82;100.00;100487.86;105981;1294;58381;-78
2022/12/18 00:37:46;;;;;;;66.40;27.60;;;;;;;-4.81;100.00;100490.84;105682;1294;58559;-79
2022/12/18 00:40:14;;;;;;;56.60;27.30;;;;;;;-4.79;100.00;100493.31;105769;1293;58792;-78
2022/12/18 00:45:35;;;;;;;65.00;28.80;;;;;;;-4.81;100.00;100496.91;105653;1294;58065;-77
2022/12/18 00:48:01;;;;;;;65.60;30.40;;;;;;;-4.82;100.00;100499.67;105799;1294;58135;-78
2022/12/18 00:50:27;;;;;;;57.70;27.70;;;;;;;-4.80;100.00;100508.38;105745;1285;58216;-78
2022/12/18 00:52:53;;;;;;;54.60;28.50;;;;;;;-4.79;100.00;100516.20;105027;1290;1002865;-78
2022/12/18 00:55:19;;;;;;;70.50;29.90;;;;;;;-4.79;100.00;100522.27;105780;1293;58117;-78
2022/12/18 00:57:46;;;;;;;67.00;29.00;;;;;;;-4.79;100.00;100523.11;105769;1294;58250;-79
2022/12/18 01:00:14;;;;;;;55.60;27.40;;;;;;;-4.79;100.00;100521.40;105071;1295;1003013;-78
2022/12/18 01:02:42;;;;;;;56.20;27.40;;;;;;;-4.78;100.00;100517.08;105500;1290;65239;-79
2022/12/18 01:05:12;;;;;;;62.40;28.60;;;;;;;-4.77;100.00;100522.98;106030;1291;60895;-78
2022/12/18 01:07:37;;;;;;;61.40;29.10;;;;;;;-4.78;100.00;100530.61;106050;1295;73702;-79
2022/12/18 01:10:04;;;;;;;67.50;30.10;;;;;;;-4.78;100.00;100531.98;106125;1288;58043;-78
2022/12/18 01:12:31;;;;;;;57.20;27.30;;;;;;;-4.79;100.00;100534.41;105761;1298;58112;-79
2022/12/18 01:14:57;;;;;;;64.70;30.70;;;;;;;-4.77;100.00;100537.38;106110;1288;58583;-76
2022/12/18 01:17:24;;;;;;;57.80;27.50;;;;;;;-4.76;100.00;100539.67;106084;1288;58872;-78
2022/12/18 01:19:50;;;;;;;66.80;29.60;;;;;;;-4.74;100.00;100540.56;105349;1288;1002013;-77
2022/12/18 01:22:15;;;;;;;62.30;30.00;;;;;;;-4.73;100.00;100544.06;106110;1287;58291;-78
2022/12/18 01:24:41;;;;;;;75.40;32.10;;;;;;;-4.74;100.00;100545.41;106106;1289;58253;-77
2022/12/18 01:27:09;;;;;;;71.30;30.80;;;;;;;-4.76;100.00;100546.42;106093;1288;58320;-78
2022/12/18 01:29:35;;;;;;;71.80;31.70;;;;;;;-4.77;100.00;100544.67;106077;1289;58382;-77
2022/12/18 01:32:01;;;;;;;58.30;28.50;;;;;;;-4.78;100.00;100547.61;106083;1287;58228;-77
2022/12/18 01:34:26;;;;;;;59.60;29.00;;;;;;;-4.78;100.00;100544.48;106101;1295;58101;-78
2022/12/18 01:36:52;;;;;;;55.80;26.10;;;;;;;-4.77;100.00;100545.02;106113;1288;57965;-79
2022/12/18 01:39:19;;;;;;;59.10;27.40;;;;;;;-4.77;100.00;100544.32;106142;1282;58523;-79
2022/12/18 01:42:01;;;;;;;58.90;27.70;;;;;;;-4.76;100.00;100543.31;106090;1289;71751;-78
2022/12/18 01:45:03;;;;;;;55.50;28.00;;;;;;;-4.77;100.00;100546.23;106079;1289;58104;-78
2022/12/18 01:47:41;;;;;;;60.80;27.70;;;;;;;-4.80;100.00;100547.91;106109;1289;58078;-79
2022/12/18 01:50:17;;;;;;;54.20;27.70;;;;;;;-4.80;100.00;100551.54;106071;1289;74034;-78
2022/12/18 01:52:55;;;;;;;73.40;32.90;;;;;;;-4.79;100.00;100553.80;106105;1287;60967;-79
2022/12/18 01:55:25;;;;;;;70.20;31.60;;;;;;;-4.78;100.00;100560.07;106081;1288;62512;-78
2022/12/18 01:57:56;;;;;;;62.30;27.70;;;;;;;-4.77;100.00;100564.42;105314;1295;1002572;-78
2022/12/18 02:00:24;;;;;;;72.40;31.10;;;;;;;-4.77;100.00;100568.59;105353;1281;1002747;-79
2022/12/18 02:02:50;;;;;;;70.30;31.40;;;;;;;-4.77;100.00;100566.17;106134;1290;64362;-78
2022/12/18 02:05:45;;;;;;;54.30;25.70;;;;;;;-4.76;100.00;100566.36;106090;1289;58122;-78
2022/12/18 02:08:21;;;;;;;65.00;29.30;;;;;;;-4.77;100.00;100569.97;106098;1287;63947;-77
2022/12/18 02:11:14;;;;;;;57.40;28.30;;;;;;;-4.77;100.00;100574.83;106095;1289;58092;-79
2022/12/18 02:13:50;;;;;;;56.50;27.40;;;;;;;-4.77;100.00;100585.73;106095;1287;58102;-78
2022/12/18 02:16:40;;;;;;;59.30;27.50;;;;;;;-4.79;100.00;100594.23;105812;1294;66320;-78
2022/12/18 02:19:58;;;;;;;58.60;26.70;;;;;;;-4.80;100.00;100602.34;105318;1289;1002175;-79
2022/12/18 02:22:33;;;;;;;60.10;28.90;;;;;;;-4.81;100.00;100601.80;106048;1288;62621;-78
2022/12/18 02:25:36;;;;;;;55.40;24.90;;;;;;;-4.81;100.00;100604.23;105808;1291;58243;-79
2022/12/18 02:28:06;;;;;;;51.80;24.50;;;;;;;-4.80;100.00;100611.70;106096;1295;58095;-79
2022/12/18 02:30:36;;;;;;;58.00;28.40;;;;;;;-4.82;100.00;100613.05;106096;1288;65068;-78
2022/12/18 02:33:06;;;;;;;67.50;30.40;;;;;;;-4.84;100.00;100611.61;106092;1289;60078;-77
2022/12/18 02:35:32;;;;;;;;;;;;;;;-4.85;100.00;100615.23;106117;1288;62668;-77
2022/12/18 02:37:58;;;;;;;61.30;27.40;;;;;;;-4.85;100.00;100617.67;106088;1295;58397;-78
2022/12/18 02:40:28;;;;;;;59.30;25.80;;;;;;;-4.84;100.00;100613.16;105352;1288;1002309;-78
2022/12/18 02:42:54;;;;;;;57.10;25.40;;;;;;;-4.84;100.00;100609.90;105911;1291;72589;-79
2022/12/18 02:45:20;;;;;;;57.20;26.70;;;;;;;-4.84;100.00;100611.10;106081;1287;58896;-77
2022/12/18 02:47:49;;;;;;;51.90;26.90;;;;;;;-4.85;100.00;100615.42;105880;1285;58906;-78
2022/12/18 02:50:54;;;;;;;59.30;27.70;;;;;;;-4.84;100.00;100620.64;105921;1291;58921;-79
2022/12/18 02:53:58;;;;;;;57.50;28.40;;;;;;;-4.84;100.00;100631.91;105451;1298;58868;-78
2022/12/18 02:56:34;;;;;;;53.30;24.30;;;;;;;-4.83;100.00;100635.05;105177;1299;67006;-79
2022/12/18 02:59:13;;;;;;;51.80;25.10;;;;;;;-4.84;100.00;100639.17;105147;1302;61382;-78
2022/12/18 03:02:05;;;;;;;56.40;26.60;;;;;;;-4.86;100.00;100641.05;104950;1304;72814;-79
2022/12/18 03:04:47;;;;;;;58.60;25.30;;;;;;;-4.87;100.00;100641.36;105140;1301;59055;-78
2022/12/18 03:07:23;;;;;;;55.00;26.30;;;;;;;-4.88;100.00;100643.94;105161;1301;60168;-79
2022/12/18 03:09:52;;;;;;;58.80;27.10;;;;;;;-4.91;100.00;100650.98;104893;1302;74943;-79
2022/12/18 03:12:27;;;;;;;53.00;27.40;;;;;;;-4.92;100.00;100652.88;105138;1307;59822;-79
2022/12/18 03:15:22;;;;;;;54.80;25.80;;;;;;;-4.93;100.00;100649.55;105139;1303;63041;-79
2022/12/18 03:17:57;;;;;;;60.70;28.90;;;;;;;-4.94;100.00;100650.05;105116;1303;59619;-78
2022/12/18 03:20:27;;;;;;;57.40;28.40;;;;;;;-4.95;100.00;100650.39;105141;1302;58850;-79
2022/12/18 03:22:59;;;;;;;51.70;24.80;;;;;;;-4.94;100.00;100650.40;105143;1302;67170;-79
2022/12/18 03:25:27;;;;;;;57.40;28.60;;;;;;;-4.95;100.00;100652.27;105137;1302;61126;-78
2022/12/18 03:27:57;;;;;;;61.50;28.50;;;;;;;-4.96;100.00;100651.23;105110;1302;72577;-79
2022/12/18 03:30:26;;;;;;;54.30;27.30;;;;;;;-4.97;100.00;100647.91;105000;1295;58958;-77
2022/12/18 03:32:56;;;;;;;60.90;29.60;;;;;;;-4.98;100.00;100648.74;105678;1295;58898;-78
2022/12/18 03:35:26;;;;;;;;;;;;;;;-4.98;100.00;100653.79;106096;1288;67047;-78
2022/12/18 03:37:52;;;;;;;51.30;24.20;;;;;;;-4.98;100.00;100654.46;106068;1287;61215;-78
2022/12/18 03:40:25;;;;;;;61.30;28.60;;;;;;;-4.98;100.00;100656.37;105372;1281;1002991;-80
2022/12/18 03:43:03;;;;;;;57.80;26.20;;;;;;;-4.99;100.00;100656.71;106074;1281;58954;-79
2022/12/18 03:45:34;;;;;;;56.60;28.00;;;;;;;-4.99;100.00;100660.00;106086;1287;58792;-78
2022/12/18 03:48:05;;;;;;;60.00;29.40;;;;;;;-5.00;100.00;100666.39;105433;1281;1002514;-78
2022/12/18 03:50:52;;;;;;;59.90;28.30;;;;;;;-5.01;100.00;100671.38;106102;1288;67562;-80
2022/12/18 03:53:28;;;;;;;58.20;29.30;;;;;;;-5.01;100.00;100669.48;106046;1288;71548;-78
2022/12/18 03:55:57;;;;;;;59.80;29.20;;;;;;;-5.00;100.00;100674.19;106058;1288;59221;-80
2022/12/18 03:58:25;;;;;;;63.70;31.10;;;;;;;-5.01;100.00;100675.55;106055;1288;59312;-79
2022/12/18 04:00:55;;;;;;;54.70;25.60;;;;;;;-5.00;100.00;100677.11;105191;1292;1002138;-79
2022/12/18 04:03:22;;;;;;;57.80;27.70;;;;;;;-5.00;100.00;100677.29;104576;1289;1002471;-78
2022/12/18 04:05:51;;;;;;;58.60;29.90;;;;;;;-4.99;100.00;100683.05;105326;1281;1002473;-78
2022/12/18 04:08:17;;;;;;;59.30;28.20;;;;;;;-4.98;100.00;100687.73;105889;1284;59544;-78
2022/12/18 04:10:44;;;;;;;65.80;31.90;;;;;;;-4.98;100.00;100692.24;105921;1292;58944;-78
2022/12/18 04:13:09;;;;;;;62.60;28.80;;;;;;;-4.98;100.00;100692.77;106097;1280;58813;-78
2022/12/18 04:15:37;;;;;;;60.60;29.30;;;;;;;-4.97;100.00;100693.66;106110;1289;59348;-78
2022/12/18 04:18:03;;;;;;;58.40;29.80;;;;;;;-4.98;100.00;100697.10;106062;1288;65276;-77
2022/12/18 04:20:29;;;;;;;61.00;30.20;;;;;;;-4.97;100.00;100705.10;106073;1281;58828;-79
2022/12/18 04:22:55;;;;;;;60.50;29.80;;;;;;;-4.96;100.00;100712.06;106098;1272;58846;-77
2022/12/18 04:25:21;;;;;;;61.30;27.40;;;;;;;-4.97;100.00;100716.04;105357;1289;1002263;-77
2022/12/18 04:27:47;;;;;;;70.70;30.90;;;;;;;-4.97;100.00;100718.11;106066;1289;59716;-77
2022/12/18 04:30:13;;;;;;;63.40;28.40;;;;;;;-4.96;100.00;100715.17;105891;1289;59056;-77
2022/12/18 04:32:39;;;;;;;67.60;31.10;;;;;;;-4.96;100.00;100721.08;106094;1289;58803;-78
2022/12/18 04:35:10;;;;;;;68.80;31.40;;;;;;;-4.97;100.00;100720.70;105843;1293;58942;-79
2022/12/18 04:37:36;;;;;;;78.00;33.70;;;;;;;-4.98;100.00;100721.55;105747;1293;66036;-78
2022/12/18 04:40:05;;;;;;;75.10;35.10;;;;;;;-4.97;100.00;100724.52;106137;1288;59345;-78
2022/12/18 04:42:31;;;;;;;76.00;35.20;;;;;;;-4.96;100.00;100728.34;106096;1281;63802;-77
2022/12/18 04:44:57;;;;;;;85.90;37.60;;;;;;;-4.96;100.00;100732.52;106078;1288;59130;-78
2022/12/18 04:47:23;;;;;;;78.20;37.30;;;;;;;-4.94;100.00;100738.81;106120;1288;58971;-77
2022/12/18 04:49:48;;;;;;;75.70;33.80;;;;;;;-4.92;100.00;100738.00;106053;1287;59131;-80
2022/12/18 04:52:15;;;;;;;79.60;38.40;;;;;;;-4.92;100.00;100736.79;106075;1282;59029;-77
2022/12/18 04:54:41;;;;;;;81.30;37.50;;;;;;;-4.90;100.00;100736.48;105319;1281;1003193;-77
2022/12/18 04:57:06;;;;;;;84.30;39.60;;;;;;;-4.86;100.00;100739.33;106049;1289;59086;-77
2022/12/18 04:59:33;;;;;;;76.70;37.30;;;;;;;-4.84;100.00;100740.44;106136;1282;58947;-76
2022/12/18 05:01:59;;;;;;;80.70;36.80;;;;;;;-4.84;100.00;100744.42;106070;1282;59152;-78
2022/12/18 05:04:24;;;;;;;90.70;38.50;;;;;;;-4.84;100.00;100752.05;106064;1281;59308;-78
2022/12/18 05:06:51;;;;;;;84.00;41.60;;;;;;;-4.84;100.00;100756.36;106049;1288;58934;-79
2022/12/18 05:09:17;;;;;;;88.40;39.00;;;;;;;-4.87;100.00;100759.77;106090;1288;59083;-78
2022/12/18 05:11:43;;;;;;;77.80;35.20;;;;;;;-4.90;100.00;100760.73;106061;1288;58973;-78
2022/12/18 05:14:09;;;;;;;79.10;35.50;;;;;;;-4.93;100.00;100769.17;106094;1288;58847;-79
2022/12/18 05:16:35;;;;;;;75.30;33.40;;;;;;;-4.96;100.00;100768.05;106073;1289;59349;-77
2022/12/18 05:19:01;;;;;;;83.90;34.80;;;;;;;-4.97;100.00;100767.52;106055;1281;58843;-77
2022/12/18 05:21:27;;;;;;;77.70;34.60;;;;;;;-4.99;100.00;100771.79;106127;1292;58877;-78
2022/12/18 05:23:53;;;;;;;81.30;37.30;;;;;;;-5.00;100.00;100769.16;105967;1290;59004;-78
2022/12/18 05:26:19;;;;;;;81.50;34.50;;;;;;;-5.00;100.00;100771.58;105352;1288;1002483;-78
2022/12/18 05:28:45;;;;;;;75.70;31.30;;;;;;;-4.99;100.00;100775.24;106049;1287;58969;-78
2022/12/18 05:31:12;;;;;;;86.30;36.90;;;;;;;-4.99;100.00;100774.21;106085;1281;58932;-78
2022/12/18 05:33:38;;;;;;;81.00;35.70;;;;;;;-4.99;100.00;100769.87;106051;1281;58888;-78
2022/12/18 05:36:07;;;;;;;75.50;33.90;;;;;;;-4.99;100.00;100772.11;106059;1285;60233;-77
2022/12/18 05:38:36;;;;;;;84.70;36.90;;;;;;;-5.00;100.00;100774.70;106061;1282;65061;-78
2022/12/18 05:41:03;;;;;;;86.00;34.20;;;;;;;-5.00;100.00;100773.98;105926;1282;145390;-78
2022/12/18 05:43:29;;;;;;;74.80;34.40;;;;;;;-5.01;100.00;100777.10;106071;1289;58904;-78
2022/12/18 05:45:56;;;;;;;69.90;30.50;;;;;;;-5.02;100.00;100776.75;106076;1282;59100;-78
2022/12/18 05:48:22;;;;;;;72.10;31.50;;;;;;;-5.02;100.00;100779.16;106084;1282;69056;-79
2022/12/18 05:50:50;;;;;;;78.70;32.60;;;;;;;-5.02;100.00;100781.93;106047;1289;59158;-78
2022/12/18 05:53:19;;;;;;;69.40;33.00;;;;;;;-5.02;100.00;100788.52;106068;1288;59392;-78
2022/12/18 05:55:46;;;;;;;74.10;31.70;;;;;;;-5.03;100.00;100785.55;106088;1288;58907;-78
2022/12/18 05:58:13;;;;;;;67.00;31.90;;;;;;;-5.04;100.00;100785.88;106081;1281;74407;-77
2022/12/18 06:00:41;;;;;;;72.50;35.10;;;;;;;-5.05;100.00;100788.27;105323;1288;1002354;-78
2022/12/18 06:03:09;;;;;;;78.50;35.30;;;;;;;-5.06;100.00;100796.04;106055;1288;64865;-78
2022/12/18 06:05:41;;;;;;;80.10;33.50;;;;;;;-5.04;100.00;100794.70;106070;1288;58908;-78
2022/12/18 06:08:07;;;;;;;80.90;36.60;;;;;;;-5.02;100.00;100799.95;106072;1281;61281;-78
2022/12/18 06:10:33;;;;;;;76.20;32.00;;;;;;;-5.01;100.00;100800.67;106090;1281;58840;-78
2022/12/18 06:12:59;;;;;;;71.40;33.20;;;;;;;-4.99;100.00;100806.80;106069;1283;58933;-78
2022/12/18 06:15:25;;;;;;;76.10;34.20;;;;;;;-4.98;100.00;100811.15;106062;1285;58980;-78
2022/12/18 06:17:51;;;;;;;77.20;35.70;;;;;;;-4.97;100.00;100808.06;105331;1288;1002310;-78
2022/12/18 06:20:18;;;;;;;79.60;36.40;;;;;;;-4.94;100.00;100808.82;106093;1288;59390;-77
2022/12/18 06:22:44;;;;;;;85.40;37.10;;;;;;;-4.90;100.00;100809.26;106121;1282;58945;-78
2022/12/18 06:25:10;;;;;;;75.00;35.60;;;;;;;-4.85;100.00;100809.56;106081;1281;59039;-79
2022/12/18 06:27:56;;;;;;;79.60;37.70;;;;;;;-4.81;100.00;100816.42;105774;1289;64198;-78
2022/12/18 06:30:23;;;;;;;79.70;36.30;;;;;;;-4.80;100.00;100818.36;106074;1278;58860;-77
2022/12/18 06:32:49;;;;;;;78.30;37.00;;;;;;;-4.78;100.00;100823.45;105331;1282;1002106;-78
2022/12/18 06:35:17;;;;;;;97.40;42.20;;;;;;;-4.76;100.00;100826.79;106079;1288;58904;-77
2022/12/18 06:37:44;;;;;;;76.50;36.30;;;;;;;-4.77;100.00;100825.71;105842;1292;59919;-77
2022/12/18 06:40:10;;;;;;;74.60;36.00;;;;;;;-4.79;100.00;100831.56;106044;1289;58974;-79
2022/12/18 06:42:36;;;;;;;81.50;40.10;;;;;;;-4.79;100.00;100828.95;105800;1285;58902;-78
2022/12/18 06:45:04;;;;;;;86.40;39.80;;;;;;;-4.79;100.00;100833.30;106075;1289;58980;-78
2022/12/18 06:47:30;;;;;;;82.40;37.20;;;;;;;-4.78;100.00;100833.14;106074;1289;75721;-78
2022/12/18 06:49:56;;;;;;;81.10;38.00;;;;;;;-4.76;100.00;100838.39;106112;1288;58990;-78
2022/12/18 06:52:22;;;;;;;78.40;36.90;;;;;;;-4.76;100.00;100840.64;106077;1285;59252;-78
2022/12/18 06:54:48;;;;;;;79.40;36.00;;;;;;;-4.78;100.00;100846.16;105320;1288;1002801;-78
2022/12/18 06:57:14;;;;;;;78.50;36.50;;;;;;;-4.79;100.00;100847.17;105353;1281;1002219;-79
2022/12/18 06:59:40;;;;;;;80.00;39.50;;;;;;;-4.80;100.00;100850.60;105355;1283;1002797;-78
2022/12/18 07:02:06;;;;;;;77.40;37.30;;;;;;;-4.79;100.00;100858.92;106274;1281;58912;-78
2022/12/18 07:04:32;;;;;;;78.70;36.90;;;;;;;-4.77;100.00;100866.27;106228;1281;58987;-78
2022/12/18 07:06:58;;;;;;;78.20;35.30;;;;;;;-4.75;100.00;100869.63;106085;1280;58898;-77
2022/12/18 07:09:24;;;;;;;73.70;34.20;;;;;;;-4.71;100.00;100874.95;106066;1282;59054;-78
2022/12/18 07:11:50;;;;;;;74.40;34.40;;;;;;;-4.67;100.00;100874.00;105917;1288;59008;-78
2022/12/18 07:14:16;;;;;;;83.20;36.70;;;;;;;-4.61;100.00;100878.30;106090;1288;58980;-79
2022/12/18 07:16:42;;;;;;;75.20;36.70;;;;;;;-4.59;100.00;100877.33;106067;1281;58896;-77
2022/12/18 07:19:10;;;;;;;83.40;38.30;;;;;;;-4.57;100.00;100883.44;105331;1282;1002553;-78
2022/12/18 07:21:36;;;;;;;80.80;37.70;;;;;;;-4.52;100.00;100884.27;106082;1281;59248;-78
2022/12/18 07:24:02;;;;;;;77.00;36.70;;;;;;;-4.47;100.00;100887.32;106088;1289;59011;-78
2022/12/18 07:26:28;;;;;;;82.20;38.30;;;;;;;-4.44;100.00;100890.17;106089;1288;59005;-80
2022/12/18 07:28:57;;;;;;;78.90;37.70;;;;;;;-4.38;100.00;100895.34;106063;1281;59238;-77
2022/12/18 07:31:23;;;;;;;76.20;36.80;;;;;;;-4.34;100.00;100901.70;106092;1288;58935;-78
2022/12/18 07:33:51;;;;;;;76.00;34.40;;;;;;;-4.30;100.00;100907.86;106068;1288;65774;-79
2022/12/18 07:36:18;;;;;;;69.90;33.60;;;;;;;-4.25;100.00;100913.18;105863;1288;69682;-78
2022/12/18 07:38:47;;;;;;;59.80;30.30;;;;;;;-4.18;100.00;100915.95;106061;1288;58966;-77
2022/12/18 07:41:13;;;;;;;67.60;34.80;;;;;;;-4.13;100.00;100915.02;105850;1293;59704;-79
2022/12/18 07:43:41;;;;;;;77.90;35.30;;;;;;;-4.09;100.00;100912.84;105935;1288;59343;-78
2022/12/18 07:46:08;;;;;;;70.90;34.40;;;;;;;-4.04;100.00;100911.94;106099;1288;65902;-78
2022/12/18 07:48:36;;;;;;;77.30;35.50;;;;;;;-3.98;100.00;100908.61;106078;1288;59912;-79
2022/12/18 07:51:05;;;;;;;68.90;33.50;;;;;;;-3.90;100.00;100911.39;106070;1281;63898;-77
2022/12/18 07:53:31;;;;;;;78.10;37.10;;;;;;;-3.84;100.00;100912.56;106083;1282;58956;-77
2022/12/18 07:56:03;;;;;;;69.80;34.40;;;;;;;-3.80;100.00;100911.45;106084;1288;58865;-78
2022/12/18 07:58:29;;;;;;;78.90;37.70;;;;;;;-3.77;100.00;100910.81;105793;1293;66009;-79
2022/12/18 08:01:03;;;;;;;77.60;37.30;;;;;;;-3.74;100.00;100911.40;106098;1281;58921;-79
2022/12/18 08:03:30;;;;;;;83.20;39.40;;;;;;;-3.67;100.00;100914.85;106071;1288;65187;-78
2022/12/18 08:06:01;;;;;;;78.60;36.60;;;;;;;-3.57;100.00;100918.54;105903;1288;58933;-78
2022/12/18 08:08:28;;;;;;;79.20;38.00;;;;;;;-3.51;100.00;100917.61;105735;1288;59011;-79
2022/12/18 08:10:56;;;;;;;78.70;39.00;;;;;;;-3.49;100.00;100914.17;106064;1281;67266;-78
2022/12/18 08:13:22;;;;;;;74.20;38.00;;;;;;;-3.51;100.00;100909.63;106114;1281;58912;-78
2022/12/18 08:15:59;;;;;;;76.90;39.20;;;;;;;-3.53;100.00;100909.76;106095;1289;59077;-78
2022/12/18 08:18:26;;;;;;;82.80;41.10;;;;;;;-3.52;100.00;100913.77;106048;1288;59281;-78
2022/12/18 08:20:52;;;;;;;88.60;40.70;;;;;;;-3.49;100.00;100914.52;106085;1289;60327;-78
2022/12/18 08:23:18;;;;;;;86.90;40.80;;;;;;;-3.47;100.00;100919.27;106087;1288;59457;-78
2022/12/18 08:25:44;;;;;;;86.20;41.00;;;;;;;-3.47;100.00;100923.60;106076;1289;59168;-79
2022/12/18 08:28:10;;;;;;;85.00;41.10;;;;;;;-3.49;100.00;100927.57;106082;1289;59012;-78
2022/12/18 08:30:36;;;;;;;95.40;46.60;;;;;;;-3.47;100.00;100931.94;106083;1289;58973;-78
2022/12/18 08:33:03;;;;;;;92.90;46.30;;;;;;;-3.44;100.00;100931.67;106074;1279;58863;-77
2022/12/18 08:35:29;;;;;;;95.60;46.90;;;;;;;-3.28;100.00;100926.77;105822;1293;59405;-77
2022/12/18 08:37:55;;;;;;;93.20;46.20;;;;;;;-3.18;100.00;100932.20;106143;1282;59039;-79
2022/12/18 08:40:21;;;;;;;85.70;45.20;;;;;;;-3.18;100.00;100929.41;106043;1281;59005;-78
2022/12/18 08:45:31;;;;;;;91.80;47.20;;;;;;;-3.27;100.00;100940.72;105745;1294;60229;-79
2022/12/18 08:47:59;;;;;;;85.60;44.70;;;;;;;-3.31;100.00;100945.83;106085;1288;65716;-79
2022/12/18 08:50:25;;;;;;;88.50;45.50;;;;;;;-3.36;100.00;100950.61;106065;1288;61464;-79
2022/12/18 08:52:51;;;;;;;83.60;41.10;;;;;;;-3.37;100.00;100950.94;105732;1288;59483;-79
2022/12/18 08:55:17;;;;;;;80.80;42.70;;;;;;;-3.35;100.00;100953.74;106077;1292;59210;-78
2022/12/18 08:57:48;;;;;;;87.70;45.10;;;;;;;-3.30;100.00;100955.60;106080;1289;59271;-78
2022/12/18 09:00:14;;;;;;;88.70;44.10;;;;;;;-3.24;100.00;100959.88;106055;1288;67218;-77
2022/12/18 09:02:40;;;;;;;89.60;45.60;;;;;;;-3.22;100.00;100962.36;106089;1289;58969;-77
2022/12/18 09:05:06;;;;;;;85.10;42.90;;;;;;;-3.22;100.00;100963.73;106111;1289;59023;-79
2022/12/18 09:07:32;;;;;;;80.40;38.80;;;;;;;-3.18;100.00;100960.00;106074;1281;58935;-79
2022/12/18 09:09:58;;;;;;;80.00;37.30;;;;;;;-3.13;100.00;100963.42;106066;1288;59135;-79
2022/12/18 09:12:25;;;;;;;73.40;35.40;;;;;;;-3.10;100.00;100967.48;106069;1288;58944;-79
2022/12/18 09:14:51;;;;;;;68.40;34.70;;;;;;;-3.06;100.00;100967.54;106073;1288;58964;-80
2022/12/18 09:17:17;;;;;;;65.50;33.20;;;;;;;-3.03;100.00;100971.95;105915;1291;59007;-78
2022/12/18 09:19:43;;;;;;;70.30;34.60;;;;;;;-3.01;100.00;100976.85;106085;1288;59325;-79
2022/12/18 09:22:09;;;;;;;66.30;32.40;;;;;;;-3.04;100.00;100981.85;106080;1288;59070;-79
2022/12/18 09:24:35;;;;;;;66.00;34.00;;;;;;;-3.10;100.00;100987.30;106087;1288;59023;-78
2022/12/18 09:27:01;;;;;;;70.50;32.10;;;;;;;-3.14;100.00;100992.08;106103;1281;59027;-78
2022/12/18 09:29:28;;;;;;;68.40;33.20;;;;;;;-3.16;100.00;100987.16;106070;1281;58966;-78
2022/12/18 09:31:54;;;;;;;66.60;33.00;;;;;;;-3.14;100.00;100985.81;106100;1288;58962;-79
2022/12/18 09:34:23;;;;;;;65.50;33.60;;;;;;;-3.07;100.00;100985.95;106130;1288;58940;-78
2022/12/18 09:36:50;;;;;;;72.70;35.00;;;;;;;-2.99;100.00;100982.82;106109;1281;60099;-77
2022/12/18 09:39:16;;;;;;;68.10;34.00;;;;;;;-2.92;100.00;100977.05;106074;1289;65058;-78
2022/12/18 09:41:56;;;;;;;68.90;34.70;;;;;;;-2.86;100.00;100979.42;106084;1281;59296;-80
2022/12/18 09:44:32;;;;;;;72.10;35.70;;;;;;;-2.77;100.00;100979.60;105934;1289;59189;-78
2022/12/18 09:47:06;;;;;;;74.30;35.60;;;;;;;-2.72;100.00;100982.12;105866;1291;67153;-77
2022/12/18 09:49:36;;;;;;;78.60;36.70;;;;;;;-2.68;100.00;100990.38;106032;1288;60245;-79
2022/12/18 09:52:15;;;;;;;72.10;35.80;;;;;;;-2.61;100.00;100994.52;106054;1281;62827;-79
2022/12/18 09:54:43;;;;;;;79.70;38.70;;;;;;;-2.56;100.00;100994.61;106060;1288;58862;-78
2022/12/18 09:57:20;;;;;;;77.10;38.30;;;;;;;-2.51;100.00;100993.65;106075;1281;58916;-79
2022/12/18 10:00:06;;;;;;;77.50;39.90;;;;;;;-2.50;100.00;100992.28;106076;1288;67001;-78
2022/12/18 10:02:33;;;;;;;82.40;38.90;;;;;;;-2.49;100.00;100988.29;106026;1290;68863;-78
2022/12/18 10:05:05;;;;;;;84.00;41.40;;;;;;;-2.44;100.00;100985.94;106068;1288;59066;-77
2022/12/18 10:07:55;;;;;;;83.10;40.70;;;;;;;-2.37;100.00;100986.77;106080;1281;58914;-76
2022/12/18 10:10:43;;;;;;;80.50;41.00;;;;;;;-2.25;100.00;100990.29;105627;1293;61628;-78
2022/12/18 10:13:20;;;;;;;82.10;40.60;;;;;;;-2.13;100.00;100981.96;105634;1294;67015;-78
2022/12/18 10:16:14;;;;;;;79.00;39.80;;;;;;;-2.00;100.00;100976.08;105733;1287;59251;-77
2022/12/18 10:19:08;;;;;;;79.80;40.30;;;;;;;-1.92;100.00;100969.58;105677;1287;62364;-78
2022/12/18 10:21:54;;;;;;;80.70;40.90;;;;;;;-1.85;100.00;100968.45;105664;1295;59251;-76
2022/12/18 10:24:33;;;;;;;78.20;38.10;;;;;;;-1.80;100.00;100966.27;105632;1287;60542;-77
2022/12/18 10:27:13;;;;;;;75.90;38.40;;;;;;;-1.73;100.00;100968.13;105652;1294;67040;-78
2022/12/18 10:29:45;;;;;;;78.60;41.90;;;;;;;-1.65;100.00;100971.02;105609;1295;61165;-78
2022/12/18 10:32:17;;;;;;;81.50;39.20;;;;;;;-1.57;100.00;100975.15;105648;1294;63894;-77
2022/12/18 10:34:47;;;;;;;73.30;36.90;;;;;;;-1.51;100.00;100977.15;105377;1300;59640;-78
2022/12/18 10:37:19;;;;;;;78.60;39.30;;;;;;;-1.51;100.00;100969.30;105612;1300;61351;-78
2022/12/18 10:39:47;;;;;;;80.20;40.60;;;;;;;-1.46;100.00;100961.88;105617;1293;77048;-79
2022/12/18 10:42:19;;;;;;;75.30;39.30;;;;;;;-1.36;100.00;100957.14;105835;1291;68533;-77
2022/12/18 10:44:45;;;;;;;97.30;52.30;;;;;;;-1.29;100.00;100951.80;106036;1288;64208;-75
2022/12/18 10:47:18;;;;;;;86.20;44.10;;;;;;;-1.23;100.00;100953.46;106049;1288;58952;-78
2022/12/18 10:49:54;;;;;;;81.80;42.20;;;;;;;-1.22;100.00;100944.04;106055;1288;58809;-78
2022/12/18 10:52:24;;;;;;;71.90;37.10;;;;;;;-1.22;100.00;100943.00;106092;1288;66893;-78
2022/12/18 10:54:58;;;;;;;77.10;40.00;;;;;;;-1.19;100.00;100947.93;106068;1289;61363;-77
2022/12/18 10:57:31;;;;;;;74.10;37.30;;;;;;;-1.14;100.00;100943.98;106033;1287;65278;-78
2022/12/18 11:00:20;;;;;;;74.90;39.10;;;;;;;-1.19;100.00;100936.42;106041;1296;59089;-77
2022/12/18 11:02:46;;;;;;;75.20;38.00;;;;;;;-1.20;100.00;100929.96;105320;1288;1002442;-76
2022/12/18 11:05:27;;;;;;;66.90;33.40;;;;;;;-1.18;100.00;100933.83;106076;1281;59230;-78
2022/12/18 11:07:54;;;;;;;71.20;35.10;;;;;;;-1.18;100.00;100936.27;106055;1287;67769;-79
2022/12/18 11:10:25;;;;;;;67.50;35.50;;;;;;;-1.21;100.00;100934.65;106076;1281;64018;-79